Terminal Aerodrome Forecast
Issued by NWS Mobile, AL

Home | Current Version | Previous Version | Text Only | Print | Product List | Glossary On
Versions: 1 2 3 4 5 6 7 8 9 10 11 12 13 14 15 16 17 18 19 20 21 22 23 24 25 26 27 28 29 30 31 32 33 34 35 36 37 38 39 40 41 42 43 44 45 46
000
FTUS44 KMOB 181505 AAB
TAFPNS
TAF AMD
KPNS 181505Z 1815/1912 00000KT 3SM -RA BR OVC003
     FM181900 18010KT P6SM OVC015
     FM190000 18011G20KT P6SM VCTS OVC015CB PROB30 1900/1906 P6SM
      -TSRA BKN012CB OVC015=

USA.gov is the U.S. government's official web portal to all federal, state and local government web resources and services.